Portada
METAR-TAF:

METAR-TAF

Aeropuertos :

El Hierro, España

Aeropuerto de El Hierro

latitud: 27-49N, longitud: 017-53W, altitud: 32 m

Observación

El informe se hizo hace 13 minutos, a las 09:00 UTC
Viento 14 kt del norte-noreste, variando entre norte-noroeste y noreste
Temperatura 21°C
Humedad 69%
Presión 1020 hPa
Visibilidad 10 km o más
Escasas nubes a una altura de 2500 ft

METAR: GCHI 170900Z 02014KT 340V050 9999 FEW025 21/15 Q1020

Hora: 10:13 (09:13 UTC)

Pronóstico

El informe se hizo hace 1 hora y 13 minutos, a las 08:00 UTC
Pronóstico válido del 17 a las 09 UTC al 18 a las 09 UTC
Viento 15 kt del norte-noreste
Visibilidad 10 km o más
Escasas nubes a una altura de 2500 ft

TAF: GCHI 170800Z 1709/1809 02015KT 9999 FEW025 TX23/1714Z TN19/1806Z

Observaciones y pronósticos meteorológicos de más de 4000 aeropuertos (mensajes METAR y TAF).

Los puntos amarillos y rojos representan las estaciones disponibles.

Ponga el ratón en el punto deseado para ver el nombre de la estación.

Haga clic para ver las observaciones y los pronósticos meteorológicos.

Para cambiar el mapa : haga clic en los botones verdes con una cruz de color negro para hacer un zoom, en el botón verde con un guión para alejar o en las flechas verdes para mapas adyacentes.


METAR-TAF: